createdAt,value
2022-12-17T00:00:49.472Z,-1.17
2022-12-17T00:03:35.257Z,-1.22
2022-12-17T00:06:20.524Z,-1.19
2022-12-17T00:09:05.414Z,-1.19
2022-12-17T00:11:50.450Z,-1.24
2022-12-17T00:14:35.703Z,-1.25
2022-12-17T00:17:20.700Z,-1.28
2022-12-17T00:20:05.522Z,-1.25
2022-12-17T00:22:50.266Z,-1.30
2022-12-17T00:25:35.194Z,-1.31
2022-12-17T00:28:20.050Z,-1.25
2022-12-17T00:31:10.594Z,-1.26
2022-12-17T00:33:55.499Z,-1.28
2022-12-17T00:36:41.100Z,-1.26
2022-12-17T00:39:26.622Z,-1.25
2022-12-17T00:42:11.445Z,-1.24
2022-12-17T00:44:56.362Z,-1.19
2022-12-17T00:47:41.033Z,-1.20
2022-12-17T00:50:26.791Z,-1.18
2022-12-17T00:53:12.680Z,-1.22
2022-12-17T00:55:58.099Z,-1.23
2022-12-17T00:58:43.015Z,-1.21
2022-12-17T01:01:28.519Z,-1.19
2022-12-17T01:04:13.648Z,-1.16
2022-12-17T01:06:58.460Z,-1.18
2022-12-17T01:09:43.334Z,-1.18
2022-12-17T01:12:28.254Z,-1.16
2022-12-17T01:15:13.158Z,-1.13
2022-12-17T01:17:58.135Z,-1.11
2022-12-17T01:20:42.968Z,-1.09
2022-12-17T01:23:28.450Z,-1.14
2022-12-17T01:26:14.264Z,-1.08
2022-12-17T01:28:59.536Z,-1.11
2022-12-17T01:31:44.613Z,-1.19
2022-12-17T01:34:29.773Z,-1.17
2022-12-17T01:37:15.181Z,-1.20
2022-12-17T01:40:00.055Z,-1.18
2022-12-17T01:42:45.077Z,-1.19
2022-12-17T01:45:32.132Z,-1.17
2022-12-17T01:48:23.654Z,-1.20
2022-12-17T01:51:11.866Z,-1.15
2022-12-17T01:54:02.215Z,-1.20
2022-12-17T01:56:47.561Z,-1.17
2022-12-17T01:59:33.361Z,-1.18
2022-12-17T02:02:18.889Z,-1.18
2022-12-17T02:05:04.242Z,-1.13
2022-12-17T02:08:14.140Z,-1.19
2022-12-17T02:11:21.133Z,-1.17
2022-12-17T02:14:40.898Z,-1.11
2022-12-17T02:17:30.620Z,-1.11
2022-12-17T02:20:21.927Z,-1.11
2022-12-17T02:23:16.782Z,-1.16
2022-12-17T02:26:04.617Z,-1.20
2022-12-17T02:28:50.886Z,-1.19
2022-12-17T02:31:36.917Z,-1.19
2022-12-17T02:34:21.754Z,-1.20
2022-12-17T02:37:06.723Z,-1.22
2022-12-17T02:39:51.886Z,-1.17
2022-12-17T02:42:44.078Z,-1.20
2022-12-17T02:45:30.054Z,-1.17
2022-12-17T02:48:15.510Z,-1.15
2022-12-17T02:51:00.974Z,-1.13
2022-12-17T02:53:45.800Z,-1.19
2022-12-17T02:56:30.870Z,-1.17
2022-12-17T02:59:16.403Z,-1.15
2022-12-17T03:02:01.347Z,-1.20
2022-12-17T03:04:46.719Z,-1.16
2022-12-17T03:07:32.079Z,-1.21
2022-12-17T03:10:16.770Z,-1.29
2022-12-17T03:13:01.586Z,-1.26
2022-12-17T03:15:46.334Z,-1.26
2022-12-17T03:18:32.759Z,-1.27
2022-12-17T03:21:17.448Z,-1.32
2022-12-17T03:24:02.389Z,-1.36
2022-12-17T03:26:47.036Z,-1.41
2022-12-17T03:29:31.892Z,-1.49
2022-12-17T03:32:16.595Z,-1.45
2022-12-17T03:35:01.370Z,-1.47
2022-12-17T03:37:46.332Z,-1.57
2022-12-17T03:40:31.086Z,-1.57
2022-12-17T03:43:16.490Z,-1.59
2022-12-17T03:46:01.348Z,-1.63
2022-12-17T03:48:46.478Z,-1.64
2022-12-17T03:51:31.294Z,-1.64
2022-12-17T03:54:16.068Z,-1.61
2022-12-17T03:57:00.918Z,-1.61
2022-12-17T03:59:45.751Z,-1.64
2022-12-17T04:02:30.742Z,-1.69
2022-12-17T04:05:20.088Z,-1.73
2022-12-17T04:08:06.207Z,-1.72
2022-12-17T04:11:07.993Z,-1.75
2022-12-17T04:13:52.689Z,-1.76
2022-12-17T04:16:37.614Z,-1.79
2022-12-17T04:19:22.490Z,-1.79
2022-12-17T04:22:07.300Z,-1.76
2022-12-17T04:24:52.115Z,-1.81
2022-12-17T04:27:37.020Z,-1.83
2022-12-17T04:30:22.318Z,-1.83
2022-12-17T04:33:07.157Z,-1.85
2022-12-17T04:35:52.654Z,-1.84
2022-12-17T04:38:37.409Z,-1.85
2022-12-17T04:41:22.227Z,-1.85
2022-12-17T04:44:07.571Z,-1.83
2022-12-17T04:46:52.552Z,-1.84
2022-12-17T04:49:37.442Z,-1.85
2022-12-17T04:52:22.771Z,-1.83
2022-12-17T04:55:07.789Z,-1.81
2022-12-17T04:57:52.637Z,-1.80
2022-12-17T05:00:37.994Z,-1.79
2022-12-17T05:03:28.586Z,-1.76
2022-12-17T05:06:13.622Z,-1.79
2022-12-17T05:08:58.944Z,-1.74
2022-12-17T05:11:43.823Z,-1.72
2022-12-17T05:14:28.822Z,-1.72
2022-12-17T05:17:14.186Z,-1.71
2022-12-17T05:19:59.012Z,-1.70
2022-12-17T05:22:43.881Z,-1.64
2022-12-17T05:25:29.150Z,-1.62
2022-12-17T05:28:14.002Z,-1.60
2022-12-17T05:30:59.288Z,-1.59
2022-12-17T05:33:44.357Z,-1.61
2022-12-17T05:36:29.127Z,-1.62
2022-12-17T05:39:14.530Z,-1.61
2022-12-17T05:41:59.551Z,-1.57
2022-12-17T05:44:44.324Z,-1.58
2022-12-17T05:47:29.243Z,-1.52
2022-12-17T05:50:13.964Z,-1.54
2022-12-17T05:52:58.833Z,-1.67
2022-12-17T05:55:43.616Z,-1.54
2022-12-17T05:58:29.958Z,-1.52
2022-12-17T06:01:16.244Z,-1.58
2022-12-17T06:04:04.106Z,-1.54
2022-12-17T06:06:49.410Z,-1.58
2022-12-17T06:09:34.360Z,-1.54
2022-12-17T06:12:19.732Z,-1.66
2022-12-17T06:15:04.677Z,-1.58
2022-12-17T06:17:49.774Z,-1.71
2022-12-17T06:20:35.082Z,-1.64
2022-12-17T06:23:29.652Z,-1.64
2022-12-17T06:26:15.595Z,-1.58
2022-12-17T06:29:01.362Z,-1.60
2022-12-17T06:31:47.327Z,-1.60
2022-12-17T06:34:32.467Z,-1.59
2022-12-17T06:37:17.861Z,-1.62
2022-12-17T06:40:02.760Z,-1.55
2022-12-17T06:42:47.655Z,-1.58
2022-12-17T06:45:32.495Z,-1.59
2022-12-17T06:48:21.807Z,-1.57
2022-12-17T06:51:07.054Z,-1.52
2022-12-17T06:53:51.854Z,-1.50
2022-12-17T06:56:36.754Z,-1.53
2022-12-17T06:59:21.576Z,-1.51
2022-12-17T07:02:06.532Z,-1.56
2022-12-17T07:04:51.745Z,-1.49
2022-12-17T07:07:36.535Z,-1.54
2022-12-17T07:10:22.346Z,-1.50
2022-12-17T07:13:07.314Z,-1.47
2022-12-17T07:15:52.148Z,-1.50
2022-12-17T07:18:36.959Z,-1.51
2022-12-17T07:21:22.141Z,-1.51
2022-12-17T07:24:07.467Z,-1.53
2022-12-17T07:26:52.308Z,-1.53
2022-12-17T07:29:37.363Z,-1.54
2022-12-17T07:32:22.809Z,-1.54
2022-12-17T07:35:07.608Z,-1.57
2022-12-17T07:37:52.467Z,-1.53
2022-12-17T07:40:47.830Z,-1.58
2022-12-17T07:43:33.885Z,-1.56
2022-12-17T07:46:19.144Z,-1.53
2022-12-17T07:49:04.089Z,-1.56
2022-12-17T07:51:48.869Z,-1.51
2022-12-17T07:54:33.643Z,-1.53
2022-12-17T07:57:18.385Z,-1.52
2022-12-17T08:00:03.148Z,-1.48
2022-12-17T08:02:48.104Z,-1.49
2022-12-17T08:05:33.265Z,-1.49
2022-12-17T08:08:26.235Z,-1.56
2022-12-17T08:11:11.103Z,-1.57
2022-12-17T08:13:56.425Z,-1.48
2022-12-17T08:16:41.428Z,-1.46
2022-12-17T08:19:26.522Z,-1.44
2022-12-17T08:22:11.402Z,-1.45
2022-12-17T08:24:56.162Z,-1.52
2022-12-17T08:27:41.008Z,-1.50
2022-12-17T08:30:26.457Z,-1.44
2022-12-17T08:33:11.650Z,-1.41
2022-12-17T08:35:57.190Z,-1.47
2022-12-17T08:38:42.037Z,-1.43
2022-12-17T08:41:26.949Z,-1.41
2022-12-17T08:44:11.729Z,-1.51
2022-12-17T08:46:56.632Z,-1.50
2022-12-17T08:49:41.513Z,-1.59
2022-12-17T08:52:26.291Z,-1.53
2022-12-17T08:55:11.274Z,-1.60
2022-12-17T08:57:56.206Z,-1.64
2022-12-17T09:00:41.132Z,-1.60
2022-12-17T09:03:26.968Z,-1.69
2022-12-17T09:06:11.817Z,-1.71
2022-12-17T09:08:56.509Z,-1.71
2022-12-17T09:11:41.417Z,-1.72
2022-12-17T09:14:26.699Z,-1.74
2022-12-17T09:17:11.622Z,-1.77
2022-12-17T09:19:56.875Z,-1.83
2022-12-17T09:22:41.756Z,-1.80
2022-12-17T09:25:27.219Z,-1.83
2022-12-17T09:28:12.076Z,-1.77
2022-12-17T09:30:56.983Z,-1.68
2022-12-17T09:33:41.867Z,-1.74
2022-12-17T09:36:27.245Z,-1.77
2022-12-17T09:39:12.229Z,-1.73
2022-12-17T09:42:09.494Z,-1.77
2022-12-17T09:45:09.486Z,-1.72
2022-12-17T09:48:06.881Z,-1.63
2022-12-17T09:50:52.239Z,-1.58
2022-12-17T09:53:42.713Z,-1.60
2022-12-17T09:56:30.554Z,-1.51
2022-12-17T09:59:16.083Z,-1.43
2022-12-17T10:02:01.525Z,-1.47
2022-12-17T10:04:55.923Z,-1.37
2022-12-17T10:07:49.957Z,-1.42
2022-12-17T10:10:45.008Z,-1.41
2022-12-17T10:13:39.519Z,-1.54
2022-12-17T10:16:58.351Z,-1.45
2022-12-17T10:19:58.023Z,-1.44
2022-12-17T10:22:43.460Z,-1.40
2022-12-17T10:25:38.506Z,-1.47
2022-12-17T10:28:32.033Z,-1.44
2022-12-17T10:31:18.042Z,-1.42
2022-12-17T10:34:04.258Z,-1.40
2022-12-17T10:36:50.096Z,-1.43
2022-12-17T10:39:44.620Z,-1.32
2022-12-17T10:42:59.437Z,-1.25
2022-12-17T10:45:45.660Z,-1.23
2022-12-17T10:48:37.732Z,-1.11
2022-12-17T10:51:24.081Z,-1.20
2022-12-17T10:54:10.878Z,-1.26
2022-12-17T10:56:56.274Z,-1.13
2022-12-17T10:59:56.038Z,-1.01
2022-12-17T11:02:47.004Z,-0.85
2022-12-17T11:05:34.849Z,-0.73
2022-12-17T11:08:21.928Z,1.07
2022-12-17T11:11:07.872Z,3.44
2022-12-17T11:13:58.761Z,5.03
2022-12-17T11:16:48.100Z,5.81
2022-12-17T11:20:08.328Z,7.33
2022-12-17T11:23:02.013Z,7.68
2022-12-17T11:26:03.072Z,7.27
2022-12-17T11:28:51.574Z,8.75
2022-12-17T11:31:36.555Z,9.71
2022-12-17T11:34:43.885Z,11.13
2022-12-17T11:37:31.806Z,10.42
2022-12-17T11:40:30.384Z,8.41
2022-12-17T11:43:41.574Z,6.64
2022-12-17T11:46:37.152Z,5.27
2022-12-17T11:49:37.541Z,5.13
2022-12-17T11:53:08.598Z,4.14
2022-12-17T11:56:17.143Z,3.46
2022-12-17T11:59:28.059Z,3.15
2022-12-17T12:02:42.346Z,3.12
2022-12-17T12:05:53.447Z,2.46
2022-12-17T12:09:26.099Z,1.80
2022-12-17T12:12:22.026Z,1.12
2022-12-17T12:15:09.791Z,1.18
2022-12-17T12:18:01.854Z,1.38
2022-12-17T12:20:55.830Z,1.81
2022-12-17T12:23:59.313Z,4.20
2022-12-17T12:27:06.523Z,5.05
2022-12-17T12:30:24.241Z,5.31
2022-12-17T12:33:28.314Z,5.88
2022-12-17T12:36:19.738Z,8.29
2022-12-17T12:39:08.622Z,10.05
2022-12-17T12:41:53.461Z,10.74
2022-12-17T12:44:54.015Z,11.61
2022-12-17T12:47:51.545Z,11.72
2022-12-17T12:50:48.945Z,11.87
2022-12-17T12:53:34.335Z,12.48
2022-12-17T12:56:19.099Z,12.06
2022-12-17T12:59:04.066Z,10.87
2022-12-17T13:01:55.238Z,11.20
2022-12-17T13:04:53.312Z,11.83
2022-12-17T13:07:30.632Z,11.29
2022-12-17T13:09:58.646Z,11.69
2022-12-17T13:12:44.751Z,11.00
2022-12-17T13:15:23.296Z,10.85
2022-12-17T13:18:02.276Z,10.88
2022-12-17T13:20:34.428Z,11.41
2022-12-17T13:23:28.810Z,10.88
2022-12-17T13:26:30.256Z,10.04
2022-12-17T13:29:11.955Z,9.96
2022-12-17T13:31:50.717Z,9.08
2022-12-17T13:34:26.099Z,9.54
2022-12-17T13:36:58.751Z,10.06
2022-12-17T13:39:40.479Z,9.93
2022-12-17T13:42:18.013Z,9.55
2022-12-17T13:44:46.746Z,9.77
2022-12-17T13:47:22.306Z,9.16
2022-12-17T13:50:32.201Z,9.75
2022-12-17T13:52:46.574Z,9.71
2022-12-17T13:55:25.962Z,9.19
2022-12-17T13:57:54.049Z,9.18
2022-12-17T14:00:27.372Z,9.65
2022-12-17T14:02:54.210Z,10.18
2022-12-17T14:05:37.366Z,9.87
2022-12-17T14:08:05.888Z,9.47
2022-12-17T14:10:32.913Z,9.23
2022-12-17T14:13:18.487Z,7.77
2022-12-17T14:15:49.879Z,7.72
2022-12-17T14:18:20.665Z,7.42
2022-12-17T14:20:49.682Z,6.21
2022-12-17T14:23:26.971Z,5.69
2022-12-17T14:25:54.037Z,5.02
2022-12-17T14:28:24.088Z,3.87
2022-12-17T14:31:25.097Z,3.34
2022-12-17T14:33:38.516Z,2.76
2022-12-17T14:36:23.703Z,1.87
2022-12-17T14:38:55.687Z,1.47
2022-12-17T14:41:44.036Z,1.16
2022-12-17T14:44:30.502Z,0.87
2022-12-17T14:47:20.596Z,0.78
2022-12-17T14:49:55.692Z,0.63
2022-12-17T14:52:41.294Z,0.39
2022-12-17T14:55:35.945Z,-0.04
2022-12-17T14:58:11.557Z,-0.24
2022-12-17T15:00:44.539Z,-0.40
2022-12-17T15:03:23.373Z,-0.50
2022-12-17T15:05:57.343Z,-0.68
2022-12-17T15:08:23.973Z,-0.71
2022-12-17T15:10:50.597Z,-0.73
2022-12-17T15:13:17.118Z,-0.69
2022-12-17T15:15:43.622Z,-0.86
2022-12-17T15:18:12.893Z,-0.92
2022-12-17T15:20:39.618Z,-1.03
2022-12-17T15:23:06.364Z,-1.18
2022-12-17T15:25:32.791Z,-1.29
2022-12-17T15:27:59.235Z,-1.27
2022-12-17T15:30:25.893Z,-1.50
2022-12-17T15:32:52.427Z,-1.54
2022-12-17T15:35:18.979Z,-1.63
2022-12-17T15:37:45.505Z,-1.70
2022-12-17T15:40:12.258Z,-1.71
2022-12-17T15:43:02.911Z,-1.70
2022-12-17T15:45:31.796Z,-1.76
2022-12-17T15:47:58.367Z,-1.77
2022-12-17T15:50:25.112Z,-1.78
2022-12-17T15:52:51.604Z,-1.79
2022-12-17T15:55:18.118Z,-1.84
2022-12-17T15:57:44.730Z,-1.95
2022-12-17T16:00:11.743Z,-1.97
2022-12-17T16:02:38.699Z,-1.95
2022-12-17T16:05:06.175Z,-2.01
2022-12-17T16:07:33.860Z,-2.09
2022-12-17T16:10:05.217Z,-2.09
2022-12-17T16:12:32.742Z,-2.17
2022-12-17T16:14:59.283Z,-2.19
2022-12-17T16:17:25.890Z,-2.19
2022-12-17T16:19:52.365Z,-2.20
2022-12-17T16:22:18.996Z,-2.25
2022-12-17T16:24:45.727Z,-2.37
2022-12-17T16:27:13.109Z,-2.38
2022-12-17T16:29:39.665Z,-2.46
2022-12-17T16:32:06.463Z,-2.53
2022-12-17T16:34:32.930Z,-2.60
2022-12-17T16:37:01.223Z,-2.63
2022-12-17T16:39:28.141Z,-2.64
2022-12-17T16:41:54.667Z,-2.56
2022-12-17T16:44:21.206Z,-2.57
2022-12-17T16:46:47.908Z,-2.56
2022-12-17T16:49:19.801Z,-2.54
2022-12-17T16:51:52.499Z,-2.54
2022-12-17T16:54:21.614Z,-2.56
2022-12-17T16:56:48.164Z,-2.55
2022-12-17T16:59:16.397Z,-2.50
2022-12-17T17:01:46.431Z,-2.45
2022-12-17T17:04:15.284Z,-2.49
2022-12-17T17:06:47.840Z,-2.51
2022-12-17T17:09:15.244Z,-2.55
2022-12-17T17:11:43.945Z,-2.59
2022-12-17T17:14:13.463Z,-2.62
2022-12-17T17:16:40.120Z,-2.64
2022-12-17T17:19:07.032Z,-2.65
2022-12-17T17:21:36.539Z,-2.70
2022-12-17T17:24:07.516Z,-2.71
2022-12-17T17:26:34.720Z,-2.74
2022-12-17T17:29:02.234Z,-2.75
2022-12-17T17:32:01.048Z,-2.88
2022-12-17T17:34:15.679Z,-2.91
2022-12-17T17:36:42.530Z,-2.98
2022-12-17T17:39:09.211Z,-2.95
2022-12-17T17:41:36.720Z,-2.96
2022-12-17T17:44:08.550Z,-2.98
2022-12-17T17:46:35.402Z,-3.04
2022-12-17T17:49:03.770Z,-3.07
2022-12-17T17:52:07.810Z,-3.08
2022-12-17T17:54:21.630Z,-3.10
2022-12-17T17:56:48.119Z,-3.16
2022-12-17T17:59:19.113Z,-3.15
2022-12-17T18:01:49.469Z,-3.24
2022-12-17T18:04:20.006Z,-3.26
2022-12-17T18:07:16.116Z,-3.27
2022-12-17T18:09:34.167Z,-3.35
2022-12-17T18:12:21.809Z,-3.39
2022-12-17T18:15:12.483Z,-3.50
2022-12-17T18:17:35.134Z,-3.70
2022-12-17T18:20:01.625Z,-3.62
2022-12-17T18:22:28.965Z,-3.62
2022-12-17T18:24:55.515Z,-3.65
2022-12-17T18:27:22.156Z,-3.73
2022-12-17T18:29:48.633Z,-3.78
2022-12-17T18:32:15.137Z,-3.80
2022-12-17T18:34:42.012Z,-3.87
2022-12-17T18:37:08.547Z,-3.91
2022-12-17T18:39:35.053Z,-3.95
2022-12-17T18:42:20.243Z,-3.98
2022-12-17T18:44:46.694Z,-4.05
2022-12-17T18:47:13.322Z,-4.08
2022-12-17T18:49:39.917Z,-4.11
2022-12-17T18:52:09.361Z,-4.12
2022-12-17T18:54:39.686Z,-4.17
2022-12-17T18:57:06.165Z,-4.12
2022-12-17T18:59:32.685Z,-4.18
2022-12-17T19:01:59.371Z,-4.21
2022-12-17T19:04:26.912Z,-4.22
2022-12-17T19:06:54.242Z,-4.26
2022-12-17T19:09:35.478Z,-4.29
2022-12-17T19:12:03.192Z,-4.24
2022-12-17T19:14:29.680Z,-4.31
2022-12-17T19:16:57.915Z,-4.29
2022-12-17T19:19:25.370Z,-4.32
2022-12-17T19:21:54.848Z,-4.40
2022-12-17T19:24:22.156Z,-4.47
2022-12-17T19:26:49.744Z,-4.44
2022-12-17T19:29:17.596Z,-4.42
2022-12-17T19:31:44.408Z,-4.46
2022-12-17T19:34:13.332Z,-4.50
2022-12-17T19:36:40.650Z,-4.53
2022-12-17T19:39:08.817Z,-4.66
2022-12-17T19:41:35.720Z,-4.58
2022-12-17T19:44:05.235Z,-4.60
2022-12-17T19:46:33.626Z,-4.66
2022-12-17T19:49:00.521Z,-4.70
2022-12-17T19:51:29.576Z,-4.77
2022-12-17T19:53:56.586Z,-4.78
2022-12-17T19:56:22.999Z,-4.78
2022-12-17T19:58:52.582Z,-4.77
2022-12-17T20:01:24.809Z,-4.79
2022-12-17T20:03:52.693Z,-4.78
2022-12-17T20:06:22.256Z,-4.79
2022-12-17T20:08:49.348Z,-4.82
2022-12-17T20:11:32.882Z,-4.85
2022-12-17T20:14:11.450Z,-4.90
2022-12-17T20:16:40.580Z,-5.01
2022-12-17T20:19:10.769Z,-5.00
2022-12-17T20:21:37.519Z,-4.98
2022-12-17T20:24:04.381Z,-4.99
2022-12-17T20:26:31.539Z,-4.98
2022-12-17T20:28:59.202Z,-4.97
2022-12-17T20:31:27.373Z,-5.00
2022-12-17T20:33:53.963Z,-5.01
2022-12-17T20:36:21.591Z,-5.07
2022-12-17T20:38:48.239Z,-5.12
2022-12-17T20:41:21.484Z,-5.11
2022-12-17T20:43:49.577Z,-5.11
2022-12-17T20:46:17.061Z,-5.17
2022-12-17T20:48:44.548Z,-5.19
2022-12-17T20:51:23.353Z,-5.26
2022-12-17T20:53:50.784Z,-5.32
2022-12-17T20:56:21.114Z,-5.34
2022-12-17T20:58:48.150Z,-5.40
2022-12-17T21:01:21.549Z,-5.45
2022-12-17T21:03:49.856Z,-5.42
2022-12-17T21:06:17.357Z,-5.43
2022-12-17T21:08:50.157Z,-5.43
2022-12-17T21:11:22.226Z,-5.57
2022-12-17T21:13:48.854Z,-5.45
2022-12-17T21:16:27.098Z,-5.41
2022-12-17T21:18:58.130Z,-5.48
2022-12-17T21:21:28.410Z,-5.47
2022-12-17T21:23:55.942Z,-5.50
2022-12-17T21:26:25.519Z,-5.53
2022-12-17T21:29:00.836Z,-5.59
2022-12-17T21:31:31.296Z,-5.58
2022-12-17T21:34:00.094Z,-5.59
2022-12-17T21:36:28.912Z,-5.61
2022-12-17T21:38:55.686Z,-5.63
2022-12-17T21:41:25.874Z,-5.63
2022-12-17T21:44:01.308Z,-5.61
2022-12-17T21:46:29.191Z,-5.59
2022-12-17T21:49:00.375Z,-5.60
2022-12-17T21:51:28.139Z,-5.61
2022-12-17T21:53:56.748Z,-5.65
2022-12-17T21:56:24.084Z,-5.67
2022-12-17T21:58:56.580Z,-5.67
2022-12-17T22:01:25.894Z,-5.68
2022-12-17T22:03:54.588Z,-5.68
2022-12-17T22:06:26.403Z,-5.71
2022-12-17T22:09:07.147Z,-5.77
2022-12-17T22:11:40.217Z,-5.81
2022-12-17T22:14:12.720Z,-5.83
2022-12-17T22:16:47.188Z,-5.85
2022-12-17T22:19:15.208Z,-5.84
2022-12-17T22:21:44.007Z,-5.85
2022-12-17T22:24:15.955Z,-5.92
2022-12-17T22:26:42.982Z,-5.90
2022-12-17T22:29:09.617Z,-5.92
2022-12-17T22:31:54.824Z,-5.95
2022-12-17T22:35:12.747Z,-5.93
2022-12-17T22:40:31.834Z,-5.90
2022-12-17T22:44:15.746Z,-5.89
2022-12-17T22:44:41.009Z,-5.94
2022-12-17T22:45:46.864Z,-5.96
2022-12-17T22:48:14.957Z,-5.89
2022-12-17T22:51:03.547Z,-5.92
2022-12-17T22:53:29.401Z,-5.93
2022-12-17T22:56:13.428Z,-5.96
2022-12-17T22:58:46.995Z,-5.97
2022-12-17T23:01:16.961Z,-6.01
2022-12-17T23:03:47.754Z,-6.03
2022-12-17T23:06:17.588Z,-6.01
2022-12-17T23:08:44.995Z,-6.04
2022-12-17T23:11:14.925Z,-6.15
2022-12-17T23:13:41.896Z,-6.08
2022-12-17T23:16:11.391Z,-6.12
2022-12-17T23:18:37.879Z,-6.12
2022-12-17T23:21:12.062Z,-6.12
2022-12-17T23:23:39.530Z,-6.11
2022-12-17T23:26:13.366Z,-6.18
2022-12-17T23:28:40.372Z,-6.21
2022-12-17T23:31:26.965Z,-6.29
2022-12-17T23:33:53.537Z,-6.20
2022-12-17T23:36:22.211Z,-6.23
2022-12-17T23:38:50.194Z,-6.21
2022-12-17T23:41:20.174Z,-6.26
2022-12-17T23:43:48.237Z,-6.35
2022-12-17T23:46:16.012Z,-6.33
2022-12-17T23:48:45.796Z,-6.42
2022-12-17T23:51:14.405Z,-6.39
2022-12-17T23:53:41.667Z,-6.42
2022-12-17T23:56:15.186Z,-6.44
2022-12-17T23:58:43.436Z,-6.46
